Terminal Aerodrome Forecast
Issued by NWS Jackson, MS

Home | Current Version | Previous Version | Text Only | Print | Product List | Glossary On
Versions: 1 2 3 4 5 6 7 8 9 10 11 12 13 14 15
984
FTUS44 KJAN 162339
TAFGLH
TAF
KGLH 162339Z 1700/1724 19007KT P6SM FEW045
     FM171000 20007KT P6SM BKN012
     FM171400 24013KT P6SM BKN025
     FM171700 24012KT P6SM SCT040 PROB30 1719/1723 TSRA BKN035CB=

USA.gov is the U.S. government's official web portal to all federal, state and local government web resources and services.